sensor_id;sensor_type;location;lat;lon;timestamp;P1;durP1;ratioP1;P2;durP2;ratioP2
71629;SDS011;59479;51.902;8.212;2022-08-19T00:01:50;7.53;;;4.50;;
71629;SDS011;59479;51.902;8.212;2022-08-19T00:04:18;6.40;;;3.88;;
71629;SDS011;59479;51.902;8.212;2022-08-19T00:06:46;6.68;;;3.88;;
71629;SDS011;59479;51.902;8.212;2022-08-19T00:09:13;6.80;;;4.68;;
71629;SDS011;59479;51.902;8.212;2022-08-19T00:11:39;7.25;;;3.72;;
71629;SDS011;59479;51.902;8.212;2022-08-19T00:14:06;8.38;;;4.75;;
71629;SDS011;59479;51.902;8.212;2022-08-19T00:16:33;7.90;;;4.30;;
71629;SDS011;59479;51.902;8.212;2022-08-19T00:18:59;8.13;;;4.72;;
71629;SDS011;59479;51.902;8.212;2022-08-19T00:21:24;9.20;;;4.57;;
71629;SDS011;59479;51.902;8.212;2022-08-19T00:23:52;7.75;;;4.60;;
71629;SDS011;59479;51.902;8.212;2022-08-19T00:26:18;8.18;;;5.35;;
71629;SDS011;59479;51.902;8.212;2022-08-19T00:28:43;7.40;;;4.40;;
71629;SDS011;59479;51.902;8.212;2022-08-19T00:31:09;7.97;;;5.00;;
71629;SDS011;59479;51.902;8.212;2022-08-19T00:33:34;8.13;;;4.63;;
71629;SDS011;59479;51.902;8.212;2022-08-19T00:36:00;6.45;;;4.28;;
71629;SDS011;59479;51.902;8.212;2022-08-19T00:38:29;9.50;;;5.15;;
71629;SDS011;59479;51.902;8.212;2022-08-19T00:40:55;8.52;;;4.70;;
71629;SDS011;59479;51.902;8.212;2022-08-19T00:43:21;9.17;;;4.83;;
71629;SDS011;59479;51.902;8.212;2022-08-19T00:45:48;8.30;;;5.03;;
71629;SDS011;59479;51.902;8.212;2022-08-19T00:48:17;11.13;;;5.40;;
71629;SDS011;59479;51.902;8.212;2022-08-19T00:50:43;7.43;;;4.65;;
71629;SDS011;59479;51.902;8.212;2022-08-19T00:53:10;12.15;;;5.10;;
71629;SDS011;59479;51.902;8.212;2022-08-19T00:55:37;7.07;;;4.70;;
71629;SDS011;59479;51.902;8.212;2022-08-19T00:58:05;10.45;;;4.93;;
71629;SDS011;59479;51.902;8.212;2022-08-19T01:00:34;8.05;;;5.03;;
71629;SDS011;59479;51.902;8.212;2022-08-19T01:03:05;9.20;;;4.75;;
71629;SDS011;59479;51.902;8.212;2022-08-19T01:05:32;8.48;;;5.03;;
71629;SDS011;59479;51.902;8.212;2022-08-19T01:08:00;8.53;;;5.40;;
71629;SDS011;59479;51.902;8.212;2022-08-19T01:10:27;8.02;;;4.82;;
71629;SDS011;59479;51.902;8.212;2022-08-19T01:12:55;7.20;;;5.28;;
71629;SDS011;59479;51.902;8.212;2022-08-19T01:15:25;8.35;;;4.63;;
71629;SDS011;59479;51.902;8.212;2022-08-19T01:17:54;8.73;;;5.10;;
71629;SDS011;59479;51.902;8.212;2022-08-19T01:20:22;7.97;;;4.90;;
71629;SDS011;59479;51.902;8.212;2022-08-19T01:22:49;7.75;;;4.63;;
71629;SDS011;59479;51.902;8.212;2022-08-19T01:25:19;7.32;;;4.55;;
71629;SDS011;59479;51.902;8.212;2022-08-19T01:27:47;8.70;;;4.68;;
71629;SDS011;59479;51.902;8.212;2022-08-19T01:30:16;7.80;;;4.53;;
71629;SDS011;59479;51.902;8.212;2022-08-19T01:32:44;9.43;;;4.83;;
71629;SDS011;59479;51.902;8.212;2022-08-19T01:35:10;7.97;;;4.70;;
71629;SDS011;59479;51.902;8.212;2022-08-19T01:40:16;9.05;;;5.03;;
71629;SDS011;59479;51.902;8.212;2022-08-19T01:42:45;7.65;;;4.90;;
71629;SDS011;59479;51.902;8.212;2022-08-19T01:45:10;8.47;;;4.90;;
71629;SDS011;59479;51.902;8.212;2022-08-19T01:47:36;8.80;;;4.90;;
71629;SDS011;59479;51.902;8.212;2022-08-19T01:50:02;10.05;;;4.82;;
71629;SDS011;59479;51.902;8.212;2022-08-19T01:52:29;8.70;;;4.63;;
71629;SDS011;59479;51.902;8.212;2022-08-19T01:54:55;8.33;;;4.43;;
71629;SDS011;59479;51.902;8.212;2022-08-19T01:57:20;8.07;;;5.13;;
71629;SDS011;59479;51.902;8.212;2022-08-19T01:59:45;8.30;;;4.73;;
71629;SDS011;59479;51.902;8.212;2022-08-19T02:02:11;7.35;;;4.60;;
71629;SDS011;59479;51.902;8.212;2022-08-19T02:04:36;9.47;;;4.90;;
71629;SDS011;59479;51.902;8.212;2022-08-19T02:07:03;7.75;;;4.60;;
71629;SDS011;59479;51.902;8.212;2022-08-19T02:09:30;9.50;;;5.70;;
71629;SDS011;59479;51.902;8.212;2022-08-19T02:11:56;8.07;;;5.00;;
71629;SDS011;59479;51.902;8.212;2022-08-19T02:14:21;7.77;;;4.63;;
71629;SDS011;59479;51.902;8.212;2022-08-19T02:16:46;7.50;;;4.77;;
71629;SDS011;59479;51.902;8.212;2022-08-19T02:19:12;9.02;;;4.90;;
71629;SDS011;59479;51.902;8.212;2022-08-19T02:21:38;8.50;;;4.73;;
71629;SDS011;59479;51.902;8.212;2022-08-19T02:24:03;7.67;;;4.87;;
71629;SDS011;59479;51.902;8.212;2022-08-19T02:26:29;9.20;;;5.00;;
71629;SDS011;59479;51.902;8.212;2022-08-19T02:28:54;8.37;;;5.30;;
71629;SDS011;59479;51.902;8.212;2022-08-19T02:31:21;8.05;;;5.47;;
71629;SDS011;59479;51.902;8.212;2022-08-19T02:33:48;8.77;;;5.15;;
71629;SDS011;59479;51.902;8.212;2022-08-19T02:36:14;8.30;;;5.03;;
71629;SDS011;59479;51.902;8.212;2022-08-19T02:38:41;8.15;;;5.72;;
71629;SDS011;59479;51.902;8.212;2022-08-19T02:41:09;8.00;;;5.47;;
71629;SDS011;59479;51.902;8.212;2022-08-19T02:43:38;8.18;;;5.43;;
71629;SDS011;59479;51.902;8.212;2022-08-19T02:46:15;7.85;;;5.20;;
71629;SDS011;59479;51.902;8.212;2022-08-19T02:48:45;9.73;;;6.28;;
71629;SDS011;59479;51.902;8.212;2022-08-19T02:51:15;11.03;;;6.67;;
71629;SDS011;59479;51.902;8.212;2022-08-19T02:53:45;9.63;;;6.50;;
71629;SDS011;59479;51.902;8.212;2022-08-19T02:56:10;10.30;;;5.97;;
71629;SDS011;59479;51.902;8.212;2022-08-19T02:58:36;10.82;;;6.78;;
71629;SDS011;59479;51.902;8.212;2022-08-19T03:01:01;8.93;;;6.00;;
71629;SDS011;59479;51.902;8.212;2022-08-19T03:03:27;8.90;;;6.30;;
71629;SDS011;59479;51.902;8.212;2022-08-19T03:06:02;9.95;;;6.28;;
71629;SDS011;59479;51.902;8.212;2022-08-19T03:08:29;10.43;;;5.80;;
71629;SDS011;59479;51.902;8.212;2022-08-19T03:10:55;10.70;;;6.25;;
71629;SDS011;59479;51.902;8.212;2022-08-19T03:13:20;9.47;;;6.00;;
71629;SDS011;59479;51.902;8.212;2022-08-19T03:15:46;9.50;;;6.00;;
71629;SDS011;59479;51.902;8.212;2022-08-19T03:18:13;10.45;;;6.22;;
71629;SDS011;59479;51.902;8.212;2022-08-19T03:20:40;9.82;;;6.20;;
71629;SDS011;59479;51.902;8.212;2022-08-19T03:23:10;9.97;;;6.60;;
71629;SDS011;59479;51.902;8.212;2022-08-19T03:25:41;10.88;;;6.38;;
71629;SDS011;59479;51.902;8.212;2022-08-19T03:28:08;12.02;;;6.78;;
71629;SDS011;59479;51.902;8.212;2022-08-19T03:30:34;11.68;;;6.60;;
71629;SDS011;59479;51.902;8.212;2022-08-19T03:33:00;10.53;;;6.93;;
71629;SDS011;59479;51.902;8.212;2022-08-19T03:35:25;13.77;;;6.87;;
71629;SDS011;59479;51.902;8.212;2022-08-19T03:37:51;11.47;;;7.10;;
71629;SDS011;59479;51.902;8.212;2022-08-19T03:40:17;14.55;;;7.28;;
71629;SDS011;59479;51.902;8.212;2022-08-19T03:42:43;13.82;;;6.75;;
71629;SDS011;59479;51.902;8.212;2022-08-19T03:45:09;10.90;;;7.03;;
71629;SDS011;59479;51.902;8.212;2022-08-19T03:47:35;12.20;;;7.13;;
71629;SDS011;59479;51.902;8.212;2022-08-19T03:50:02;13.27;;;7.45;;
71629;SDS011;59479;51.902;8.212;2022-08-19T03:52:28;10.27;;;6.50;;
71629;SDS011;59479;51.902;8.212;2022-08-19T03:54:53;10.30;;;6.33;;
71629;SDS011;59479;51.902;8.212;2022-08-19T03:57:19;10.23;;;6.40;;
71629;SDS011;59479;51.902;8.212;2022-08-19T03:59:44;9.30;;;6.50;;
71629;SDS011;59479;51.902;8.212;2022-08-19T04:02:10;10.67;;;6.90;;
71629;SDS011;59479;51.902;8.212;2022-08-19T04:04:37;11.80;;;7.78;;
71629;SDS011;59479;51.902;8.212;2022-08-19T04:07:04;12.05;;;7.40;;
71629;SDS011;59479;51.902;8.212;2022-08-19T04:09:30;12.97;;;7.60;;
71629;SDS011;59479;51.902;8.212;2022-08-19T04:11:55;13.15;;;7.25;;
71629;SDS011;59479;51.902;8.212;2022-08-19T04:14:27;9.90;;;6.63;;
71629;SDS011;59479;51.902;8.212;2022-08-19T04:16:55;12.07;;;7.63;;
71629;SDS011;59479;51.902;8.212;2022-08-19T04:19:21;10.43;;;6.88;;
71629;SDS011;59479;51.902;8.212;2022-08-19T04:21:48;12.02;;;7.40;;
71629;SDS011;59479;51.902;8.212;2022-08-19T04:24:16;10.73;;;7.50;;
71629;SDS011;59479;51.902;8.212;2022-08-19T04:26:42;9.83;;;6.43;;
71629;SDS011;59479;51.902;8.212;2022-08-19T04:29:10;13.43;;;7.47;;
71629;SDS011;59479;51.902;8.212;2022-08-19T04:31:38;12.10;;;7.22;;
71629;SDS011;59479;51.902;8.212;2022-08-19T04:34:05;14.30;;;7.50;;
71629;SDS011;59479;51.902;8.212;2022-08-19T04:36:36;14.02;;;7.57;;
71629;SDS011;59479;51.902;8.212;2022-08-19T04:39:08;15.57;;;6.90;;
71629;SDS011;59479;51.902;8.212;2022-08-19T04:41:35;11.50;;;7.05;;
71629;SDS011;59479;51.902;8.212;2022-08-19T04:44:19;12.25;;;7.45;;
71629;SDS011;59479;51.902;8.212;2022-08-19T04:46:45;13.47;;;8.20;;
71629;SDS011;59479;51.902;8.212;2022-08-19T04:49:12;18.00;;;7.45;;
71629;SDS011;59479;51.902;8.212;2022-08-19T04:51:40;11.80;;;7.10;;
71629;SDS011;59479;51.902;8.212;2022-08-19T04:54:06;11.70;;;7.47;;
71629;SDS011;59479;51.902;8.212;2022-08-19T04:56:32;10.93;;;7.30;;
71629;SDS011;59479;51.902;8.212;2022-08-19T04:58:57;13.33;;;7.20;;
71629;SDS011;59479;51.902;8.212;2022-08-19T05:01:28;12.68;;;8.10;;
71629;SDS011;59479;51.902;8.212;2022-08-19T05:03:55;12.30;;;7.13;;
71629;SDS011;59479;51.902;8.212;2022-08-19T05:06:21;13.02;;;8.27;;
71629;SDS011;59479;51.902;8.212;2022-08-19T05:08:47;11.65;;;7.32;;
71629;SDS011;59479;51.902;8.212;2022-08-19T05:11:14;12.80;;;8.10;;
71629;SDS011;59479;51.902;8.212;2022-08-19T05:13:42;12.65;;;7.97;;
71629;SDS011;59479;51.902;8.212;2022-08-19T05:16:09;14.35;;;8.48;;
71629;SDS011;59479;51.902;8.212;2022-08-19T05:18:36;14.18;;;7.30;;
71629;SDS011;59479;51.902;8.212;2022-08-19T05:21:20;12.15;;;7.95;;
71629;SDS011;59479;51.902;8.212;2022-08-19T05:24:05;12.88;;;7.93;;
71629;SDS011;59479;51.902;8.212;2022-08-19T05:26:35;11.95;;;8.20;;
71629;SDS011;59479;51.902;8.212;2022-08-19T05:29:01;13.30;;;8.00;;
71629;SDS011;59479;51.902;8.212;2022-08-19T05:31:26;13.15;;;8.13;;
71629;SDS011;59479;51.902;8.212;2022-08-19T05:33:51;13.50;;;8.40;;
71629;SDS011;59479;51.902;8.212;2022-08-19T05:36:17;12.23;;;7.70;;
71629;SDS011;59479;51.902;8.212;2022-08-19T05:38:44;14.13;;;8.02;;
71629;SDS011;59479;51.902;8.212;2022-08-19T05:41:10;13.57;;;7.97;;
71629;SDS011;59479;51.902;8.212;2022-08-19T05:43:37;14.05;;;8.48;;
71629;SDS011;59479;51.902;8.212;2022-08-19T05:46:06;14.90;;;8.80;;
71629;SDS011;59479;51.902;8.212;2022-08-19T05:48:32;13.55;;;8.68;;
71629;SDS011;59479;51.902;8.212;2022-08-19T05:51:03;14.93;;;9.18;;
71629;SDS011;59479;51.902;8.212;2022-08-19T05:53:32;14.30;;;8.53;;
71629;SDS011;59479;51.902;8.212;2022-08-19T05:55:58;14.65;;;8.52;;
71629;SDS011;59479;51.902;8.212;2022-08-19T05:58:28;14.95;;;9.05;;
71629;SDS011;59479;51.902;8.212;2022-08-19T06:00:54;12.63;;;8.37;;
71629;SDS011;59479;51.902;8.212;2022-08-19T06:03:19;14.73;;;9.70;;
71629;SDS011;59479;51.902;8.212;2022-08-19T06:05:45;19.30;;;10.00;;
71629;SDS011;59479;51.902;8.212;2022-08-19T06:08:10;15.48;;;9.50;;
71629;SDS011;59479;51.902;8.212;2022-08-19T06:10:36;15.60;;;9.73;;
71629;SDS011;59479;51.902;8.212;2022-08-19T06:13:01;16.92;;;9.63;;
71629;SDS011;59479;51.902;8.212;2022-08-19T06:15:27;18.00;;;10.07;;
71629;SDS011;59479;51.902;8.212;2022-08-19T06:17:53;16.40;;;10.17;;
71629;SDS011;59479;51.902;8.212;2022-08-19T06:20:18;15.88;;;9.88;;
71629;SDS011;59479;51.902;8.212;2022-08-19T06:22:44;19.83;;;9.93;;
71629;SDS011;59479;51.902;8.212;2022-08-19T06:25:12;14.70;;;9.55;;
71629;SDS011;59479;51.902;8.212;2022-08-19T06:27:39;13.93;;;9.52;;
71629;SDS011;59479;51.902;8.212;2022-08-19T06:30:05;14.75;;;9.60;;
71629;SDS011;59479;51.902;8.212;2022-08-19T06:32:34;15.40;;;9.82;;
71629;SDS011;59479;51.902;8.212;2022-08-19T06:35:00;17.42;;;9.95;;
71629;SDS011;59479;51.902;8.212;2022-08-19T06:37:30;14.98;;;9.65;;
71629;SDS011;59479;51.902;8.212;2022-08-19T06:39:55;16.73;;;9.43;;
71629;SDS011;59479;51.902;8.212;2022-08-19T06:42:21;13.68;;;8.52;;
71629;SDS011;59479;51.902;8.212;2022-08-19T06:44:47;16.87;;;9.63;;
71629;SDS011;59479;51.902;8.212;2022-08-19T06:47:15;15.35;;;10.20;;
71629;SDS011;59479;51.902;8.212;2022-08-19T06:49:42;15.90;;;9.63;;
71629;SDS011;59479;51.902;8.212;2022-08-19T06:52:09;14.57;;;9.25;;
71629;SDS011;59479;51.902;8.212;2022-08-19T06:54:37;13.82;;;8.88;;
71629;SDS011;59479;51.902;8.212;2022-08-19T06:57:02;16.97;;;9.33;;
71629;SDS011;59479;51.902;8.212;2022-08-19T06:59:29;14.68;;;9.10;;
71629;SDS011;59479;51.902;8.212;2022-08-19T07:01:57;14.68;;;8.13;;
71629;SDS011;59479;51.902;8.212;2022-08-19T07:04:26;14.38;;;8.75;;
71629;SDS011;59479;51.902;8.212;2022-08-19T07:06:58;14.90;;;9.25;;
71629;SDS011;59479;51.902;8.212;2022-08-19T07:09:32;16.10;;;9.40;;
71629;SDS011;59479;51.902;8.212;2022-08-19T07:11:57;13.57;;;8.17;;
71629;SDS011;59479;51.902;8.212;2022-08-19T07:14:24;13.40;;;8.43;;
71629;SDS011;59479;51.902;8.212;2022-08-19T07:16:51;15.18;;;8.95;;
71629;SDS011;59479;51.902;8.212;2022-08-19T07:19:19;14.07;;;8.85;;
71629;SDS011;59479;51.902;8.212;2022-08-19T07:21:45;14.33;;;8.93;;
71629;SDS011;59479;51.902;8.212;2022-08-19T07:24:12;14.95;;;8.32;;
71629;SDS011;59479;51.902;8.212;2022-08-19T07:26:39;14.80;;;8.77;;
71629;SDS011;59479;51.902;8.212;2022-08-19T07:29:06;14.55;;;8.68;;
71629;SDS011;59479;51.902;8.212;2022-08-19T07:31:32;14.30;;;7.53;;
71629;SDS011;59479;51.902;8.212;2022-08-19T07:34:02;16.02;;;7.82;;
71629;SDS011;59479;51.902;8.212;2022-08-19T07:36:32;11.93;;;7.13;;
71629;SDS011;59479;51.902;8.212;2022-08-19T07:38:59;13.18;;;6.88;;
71629;SDS011;59479;51.902;8.212;2022-08-19T07:41:28;9.95;;;6.80;;
71629;SDS011;59479;51.902;8.212;2022-08-19T07:43:55;13.95;;;6.78;;
71629;SDS011;59479;51.902;8.212;2022-08-19T07:46:21;12.60;;;7.87;;
71629;SDS011;59479;51.902;8.212;2022-08-19T07:48:47;12.60;;;7.53;;
71629;SDS011;59479;51.902;8.212;2022-08-19T07:51:15;14.60;;;7.43;;
71629;SDS011;59479;51.902;8.212;2022-08-19T07:53:42;13.10;;;7.57;;
71629;SDS011;59479;51.902;8.212;2022-08-19T07:56:09;14.82;;;7.72;;
71629;SDS011;59479;51.902;8.212;2022-08-19T07:58:38;11.45;;;7.72;;
71629;SDS011;59479;51.902;8.212;2022-08-19T08:01:05;13.15;;;6.35;;
71629;SDS011;59479;51.902;8.212;2022-08-19T08:03:31;13.02;;;6.70;;
71629;SDS011;59479;51.902;8.212;2022-08-19T08:06:15;11.00;;;6.17;;
71629;SDS011;59479;51.902;8.212;2022-08-19T08:09:00;11.77;;;6.00;;
71629;SDS011;59479;51.902;8.212;2022-08-19T08:11:47;11.00;;;5.50;;
71629;SDS011;59479;51.902;8.212;2022-08-19T08:14:22;9.68;;;5.50;;
71629;SDS011;59479;51.902;8.212;2022-08-19T08:16:50;11.80;;;5.07;;
71629;SDS011;59479;51.902;8.212;2022-08-19T08:19:17;9.57;;;4.63;;
71629;SDS011;59479;51.902;8.212;2022-08-19T08:21:45;10.45;;;5.10;;
71629;SDS011;59479;51.902;8.212;2022-08-19T08:24:11;10.05;;;5.20;;
71629;SDS011;59479;51.902;8.212;2022-08-19T08:26:37;11.88;;;5.53;;
71629;SDS011;59479;51.902;8.212;2022-08-19T08:29:02;9.10;;;6.27;;
71629;SDS011;59479;51.902;8.212;2022-08-19T08:31:28;8.43;;;5.30;;
71629;SDS011;59479;51.902;8.212;2022-08-19T08:33:53;10.25;;;5.22;;
71629;SDS011;59479;51.902;8.212;2022-08-19T08:36:19;9.47;;;5.27;;
71629;SDS011;59479;51.902;8.212;2022-08-19T08:38:45;9.67;;;5.60;;
71629;SDS011;59479;51.902;8.212;2022-08-19T08:44:20;11.20;;;5.28;;
71629;SDS011;59479;51.902;8.212;2022-08-19T08:46:49;9.88;;;5.20;;
71629;SDS011;59479;51.902;8.212;2022-08-19T08:52:07;8.75;;;4.82;;
71629;SDS011;59479;51.902;8.212;2022-08-19T08:54:39;9.90;;;5.00;;
71629;SDS011;59479;51.902;8.212;2022-08-19T08:57:09;9.10;;;5.35;;
71629;SDS011;59479;51.902;8.212;2022-08-19T08:59:39;10.30;;;5.03;;
71629;SDS011;59479;51.902;8.212;2022-08-19T09:02:06;10.82;;;5.53;;
71629;SDS011;59479;51.902;8.212;2022-08-19T09:04:33;8.70;;;5.05;;
71629;SDS011;59479;51.902;8.212;2022-08-19T09:09:43;8.85;;;5.70;;
71629;SDS011;59479;51.902;8.212;2022-08-19T09:15:07;11.05;;;5.40;;
71629;SDS011;59479;51.902;8.212;2022-08-19T09:17:35;9.13;;;4.88;;
71629;SDS011;59479;51.902;8.212;2022-08-19T09:22:38;7.65;;;4.82;;
71629;SDS011;59479;51.902;8.212;2022-08-19T09:25:06;9.00;;;5.37;;
71629;SDS011;59479;51.902;8.212;2022-08-19T09:27:35;7.55;;;4.93;;
71629;SDS011;59479;51.902;8.212;2022-08-19T09:30:02;9.23;;;4.88;;
71629;SDS011;59479;51.902;8.212;2022-08-19T09:32:29;7.78;;;4.13;;
71629;SDS011;59479;51.902;8.212;2022-08-19T09:34:55;7.93;;;4.65;;
71629;SDS011;59479;51.902;8.212;2022-08-19T09:37:22;6.80;;;4.32;;
71629;SDS011;59479;51.902;8.212;2022-08-19T09:39:49;8.32;;;4.47;;
71629;SDS011;59479;51.902;8.212;2022-08-19T09:42:14;7.13;;;4.10;;
71629;SDS011;59479;51.902;8.212;2022-08-19T09:44:40;8.03;;;4.40;;
71629;SDS011;59479;51.902;8.212;2022-08-19T09:47:06;9.60;;;4.80;;
71629;SDS011;59479;51.902;8.212;2022-08-19T09:49:32;8.45;;;4.63;;
71629;SDS011;59479;51.902;8.212;2022-08-19T09:51:58;9.95;;;4.95;;
71629;SDS011;59479;51.902;8.212;2022-08-19T09:54:24;7.10;;;4.80;;
71629;SDS011;59479;51.902;8.212;2022-08-19T09:56:50;6.95;;;4.38;;
71629;SDS011;59479;51.902;8.212;2022-08-19T09:59:16;8.40;;;4.55;;
71629;SDS011;59479;51.902;8.212;2022-08-19T10:01:42;7.50;;;4.37;;
71629;SDS011;59479;51.902;8.212;2022-08-19T10:04:07;7.10;;;4.77;;
71629;SDS011;59479;51.902;8.212;2022-08-19T10:06:36;8.25;;;4.20;;
71629;SDS011;59479;51.902;8.212;2022-08-19T10:09:06;9.60;;;4.28;;
71629;SDS011;59479;51.902;8.212;2022-08-19T10:11:35;6.53;;;4.43;;
71629;SDS011;59479;51.902;8.212;2022-08-19T10:14:02;7.70;;;4.32;;
71629;SDS011;59479;51.902;8.212;2022-08-19T10:16:31;6.68;;;4.20;;
71629;SDS011;59479;51.902;8.212;2022-08-19T10:18:56;8.45;;;4.35;;
71629;SDS011;59479;51.902;8.212;2022-08-19T10:21:24;6.10;;;4.00;;
71629;SDS011;59479;51.902;8.212;2022-08-19T10:23:56;6.00;;;4.00;;
71629;SDS011;59479;51.902;8.212;2022-08-19T10:26:24;6.75;;;4.25;;
71629;SDS011;59479;51.902;8.212;2022-08-19T10:28:51;5.22;;;3.65;;
71629;SDS011;59479;51.902;8.212;2022-08-19T10:31:19;8.52;;;4.63;;
71629;SDS011;59479;51.902;8.212;2022-08-19T10:33:46;6.77;;;4.77;;
71629;SDS011;59479;51.902;8.212;2022-08-19T10:36:14;8.45;;;4.75;;
71629;SDS011;59479;51.902;8.212;2022-08-19T10:38:42;8.35;;;4.72;;
71629;SDS011;59479;51.902;8.212;2022-08-19T10:41:11;7.47;;;4.20;;
71629;SDS011;59479;51.902;8.212;2022-08-19T10:43:39;6.95;;;4.90;;
71629;SDS011;59479;51.902;8.212;2022-08-19T10:46:06;8.57;;;4.70;;
71629;SDS011;59479;51.902;8.212;2022-08-19T10:48:33;8.45;;;5.13;;
71629;SDS011;59479;51.902;8.212;2022-08-19T10:50:59;8.70;;;4.97;;
71629;SDS011;59479;51.902;8.212;2022-08-19T10:53:44;6.78;;;4.65;;
71629;SDS011;59479;51.902;8.212;2022-08-19T10:56:09;9.70;;;3.90;;
71629;SDS011;59479;51.902;8.212;2022-08-19T10:58:53;5.35;;;3.60;;
71629;SDS011;59479;51.902;8.212;2022-08-19T11:01:19;6.70;;;4.07;;
71629;SDS011;59479;51.902;8.212;2022-08-19T11:03:45;6.10;;;4.13;;
71629;SDS011;59479;51.902;8.212;2022-08-19T11:06:10;7.50;;;3.63;;
71629;SDS011;59479;51.902;8.212;2022-08-19T11:08:36;5.87;;;4.00;;
71629;SDS011;59479;51.902;8.212;2022-08-19T11:11:06;7.10;;;4.38;;
71629;SDS011;59479;51.902;8.212;2022-08-19T11:13:34;7.38;;;4.25;;
71629;SDS011;59479;51.902;8.212;2022-08-19T11:18:33;4.97;;;3.65;;
71629;SDS011;59479;51.902;8.212;2022-08-19T11:24:03;6.22;;;3.65;;
71629;SDS011;59479;51.902;8.212;2022-08-19T11:26:31;4.90;;;3.40;;
71629;SDS011;59479;51.902;8.212;2022-08-19T11:28:58;6.28;;;3.53;;
71629;SDS011;59479;51.902;8.212;2022-08-19T11:31:28;5.05;;;3.67;;
71629;SDS011;59479;51.902;8.212;2022-08-19T11:33:58;5.63;;;3.07;;
71629;SDS011;59479;51.902;8.212;2022-08-19T11:36:26;5.53;;;3.40;;
71629;SDS011;59479;51.902;8.212;2022-08-19T11:38:52;5.75;;;3.20;;
71629;SDS011;59479;51.902;8.212;2022-08-19T11:41:19;6.18;;;3.50;;
71629;SDS011;59479;51.902;8.212;2022-08-19T11:43:45;5.53;;;2.90;;
71629;SDS011;59479;51.902;8.212;2022-08-19T11:46:12;5.28;;;3.08;;
71629;SDS011;59479;51.902;8.212;2022-08-19T11:48:39;4.57;;;2.97;;
71629;SDS011;59479;51.902;8.212;2022-08-19T11:51:06;4.30;;;2.70;;
71629;SDS011;59479;51.902;8.212;2022-08-19T11:53:36;4.97;;;3.00;;
71629;SDS011;59479;51.902;8.212;2022-08-19T11:56:02;6.35;;;3.60;;
71629;SDS011;59479;51.902;8.212;2022-08-19T11:58:28;7.35;;;3.25;;
71629;SDS011;59479;51.902;8.212;2022-08-19T12:00:54;6.40;;;3.75;;
71629;SDS011;59479;51.902;8.212;2022-08-19T12:03:19;4.97;;;3.40;;
71629;SDS011;59479;51.902;8.212;2022-08-19T12:05:45;5.05;;;3.60;;
71629;SDS011;59479;51.902;8.212;2022-08-19T12:08:11;9.23;;;3.97;;
71629;SDS011;59479;51.902;8.212;2022-08-19T12:10:38;6.25;;;3.67;;
71629;SDS011;59479;51.902;8.212;2022-08-19T12:13:04;5.28;;;3.50;;
71629;SDS011;59479;51.902;8.212;2022-08-19T12:15:34;7.05;;;4.25;;
71629;SDS011;59479;51.902;8.212;2022-08-19T12:18:01;7.90;;;3.93;;
71629;SDS011;59479;51.902;8.212;2022-08-19T12:20:26;6.63;;;3.40;;
71629;SDS011;59479;51.902;8.212;2022-08-19T12:22:51;5.40;;;3.75;;
71629;SDS011;59479;51.902;8.212;2022-08-19T12:25:17;6.03;;;3.60;;
71629;SDS011;59479;51.902;8.212;2022-08-19T12:27:42;6.63;;;4.00;;
71629;SDS011;59479;51.902;8.212;2022-08-19T12:30:09;6.07;;;3.90;;
71629;SDS011;59479;51.902;8.212;2022-08-19T12:32:36;6.40;;;3.80;;
71629;SDS011;59479;51.902;8.212;2022-08-19T12:35:02;5.72;;;3.97;;
71629;SDS011;59479;51.902;8.212;2022-08-19T12:37:28;7.23;;;4.00;;
71629;SDS011;59479;51.902;8.212;2022-08-19T12:39:54;6.55;;;3.65;;
71629;SDS011;59479;51.902;8.212;2022-08-19T12:42:28;4.80;;;3.60;;
71629;SDS011;59479;51.902;8.212;2022-08-19T12:44:54;8.05;;;3.67;;
71629;SDS011;59479;51.902;8.212;2022-08-19T12:47:19;5.87;;;3.57;;
71629;SDS011;59479;51.902;8.212;2022-08-19T12:49:46;5.05;;;3.20;;
71629;SDS011;59479;51.902;8.212;2022-08-19T12:52:11;5.17;;;3.63;;
71629;SDS011;59479;51.902;8.212;2022-08-19T12:54:40;5.00;;;3.40;;
71629;SDS011;59479;51.902;8.212;2022-08-19T12:57:06;4.97;;;3.50;;
71629;SDS011;59479;51.902;8.212;2022-08-19T12:59:33;6.13;;;3.45;;
71629;SDS011;59479;51.902;8.212;2022-08-19T13:02:01;7.13;;;3.35;;
71629;SDS011;59479;51.902;8.212;2022-08-19T13:04:26;5.70;;;3.27;;
71629;SDS011;59479;51.902;8.212;2022-08-19T13:06:52;5.63;;;3.37;;
71629;SDS011;59479;51.902;8.212;2022-08-19T13:09:17;5.10;;;3.47;;
71629;SDS011;59479;51.902;8.212;2022-08-19T13:11:42;5.70;;;3.57;;
71629;SDS011;59479;51.902;8.212;2022-08-19T13:14:09;5.15;;;3.53;;
71629;SDS011;59479;51.902;8.212;2022-08-19T13:16:36;5.50;;;3.30;;
71629;SDS011;59479;51.902;8.212;2022-08-19T13:19:02;7.75;;;3.63;;
71629;SDS011;59479;51.902;8.212;2022-08-19T13:21:29;7.20;;;3.40;;
71629;SDS011;59479;51.902;8.212;2022-08-19T13:23:55;5.70;;;3.60;;
71629;SDS011;59479;51.902;8.212;2022-08-19T13:26:21;6.18;;;3.83;;
71629;SDS011;59479;51.902;8.212;2022-08-19T13:28:46;5.00;;;3.03;;
71629;SDS011;59479;51.902;8.212;2022-08-19T13:31:31;4.82;;;3.45;;
71629;SDS011;59479;51.902;8.212;2022-08-19T13:34:18;6.55;;;3.38;;
71629;SDS011;59479;51.902;8.212;2022-08-19T13:36:51;6.03;;;3.70;;
71629;SDS011;59479;51.902;8.212;2022-08-19T13:39:17;5.85;;;3.47;;
71629;SDS011;59479;51.902;8.212;2022-08-19T13:41:44;5.22;;;3.45;;
71629;SDS011;59479;51.902;8.212;2022-08-19T13:44:13;4.90;;;3.47;;
71629;SDS011;59479;51.902;8.212;2022-08-19T13:46:39;4.50;;;3.70;;
71629;SDS011;59479;51.902;8.212;2022-08-19T13:49:04;5.93;;;3.77;;
71629;SDS011;59479;51.902;8.212;2022-08-19T13:51:29;4.60;;;3.40;;
71629;SDS011;59479;51.902;8.212;2022-08-19T13:53:54;5.10;;;3.27;;
71629;SDS011;59479;51.902;8.212;2022-08-19T13:56:20;6.27;;;3.73;;
71629;SDS011;59479;51.902;8.212;2022-08-19T13:58:45;6.68;;;3.28;;
71629;SDS011;59479;51.902;8.212;2022-08-19T14:01:11;5.63;;;3.47;;
71629;SDS011;59479;51.902;8.212;2022-08-19T14:03:36;5.73;;;3.30;;
71629;SDS011;59479;51.902;8.212;2022-08-19T14:06:02;5.97;;;3.40;;
71629;SDS011;59479;51.902;8.212;2022-08-19T14:08:27;5.07;;;3.10;;
71629;SDS011;59479;51.902;8.212;2022-08-19T14:10:56;4.60;;;3.27;;
71629;SDS011;59479;51.902;8.212;2022-08-19T14:13:22;6.43;;;3.38;;
71629;SDS011;59479;51.902;8.212;2022-08-19T14:15:48;5.55;;;3.17;;
71629;SDS011;59479;51.902;8.212;2022-08-19T14:18:15;5.00;;;3.33;;
71629;SDS011;59479;51.902;8.212;2022-08-19T14:20:42;6.18;;;3.60;;
71629;SDS011;59479;51.902;8.212;2022-08-19T14:23:08;5.65;;;3.70;;
71629;SDS011;59479;51.902;8.212;2022-08-19T14:25:34;5.33;;;3.67;;
71629;SDS011;59479;51.902;8.212;2022-08-19T14:27:59;5.90;;;3.70;;
71629;SDS011;59479;51.902;8.212;2022-08-19T14:30:29;6.10;;;3.60;;
71629;SDS011;59479;51.902;8.212;2022-08-19T14:32:57;5.85;;;3.65;;
71629;SDS011;59479;51.902;8.212;2022-08-19T14:35:25;5.20;;;3.80;;
71629;SDS011;59479;51.902;8.212;2022-08-19T14:37:51;6.38;;;3.90;;
71629;SDS011;59479;51.902;8.212;2022-08-19T14:40:20;5.90;;;4.32;;
71629;SDS011;59479;51.902;8.212;2022-08-19T14:42:51;6.85;;;4.90;;
71629;SDS011;59479;51.902;8.212;2022-08-19T14:45:20;5.82;;;4.25;;
71629;SDS011;59479;51.902;8.212;2022-08-19T14:47:46;6.27;;;4.43;;
71629;SDS011;59479;51.902;8.212;2022-08-19T14:50:11;6.30;;;3.90;;
71629;SDS011;59479;51.902;8.212;2022-08-19T14:52:37;6.35;;;3.75;;
71629;SDS011;59479;51.902;8.212;2022-08-19T14:55:03;5.73;;;3.90;;
71629;SDS011;59479;51.902;8.212;2022-08-19T14:57:28;6.85;;;4.45;;
71629;SDS011;59479;51.902;8.212;2022-08-19T14:59:54;6.03;;;4.10;;
71629;SDS011;59479;51.902;8.212;2022-08-19T15:02:19;6.33;;;4.07;;
71629;SDS011;59479;51.902;8.212;2022-08-19T15:04:45;5.00;;;3.57;;
71629;SDS011;59479;51.902;8.212;2022-08-19T15:07:10;5.95;;;4.40;;